createdAt,value
2022-08-02T00:00:12.566Z,100.00
2022-08-02T00:02:46.864Z,100.00
2022-08-02T00:05:20.178Z,100.00
2022-08-02T00:07:48.293Z,100.00
2022-08-02T00:10:24.362Z,100.00
2022-08-02T00:12:53.226Z,100.00
2022-08-02T00:15:20.544Z,100.00
2022-08-02T00:17:48.630Z,100.00
2022-08-02T00:20:29.262Z,100.00
2022-08-02T00:22:58.338Z,100.00
2022-08-02T00:25:32.161Z,100.00
2022-08-02T00:28:00.091Z,100.00
2022-08-02T00:30:34.234Z,100.00
2022-08-02T00:33:02.893Z,100.00
2022-08-02T00:35:40.709Z,100.00
2022-08-02T00:38:23.345Z,100.00
2022-08-02T00:40:58.217Z,100.00
2022-08-02T00:43:57.613Z,100.00
2022-08-02T00:46:24.649Z,100.00
2022-08-02T00:48:56.824Z,100.00
2022-08-02T00:51:46.620Z,100.00
2022-08-02T00:54:38.617Z,100.00
2022-08-02T00:57:07.898Z,100.00
2022-08-02T00:59:35.996Z,100.00
2022-08-02T01:02:18.674Z,100.00
2022-08-02T01:04:46.785Z,100.00
2022-08-02T01:07:19.706Z,100.00
2022-08-02T01:09:48.844Z,100.00
2022-08-02T01:12:20.211Z,100.00
2022-08-02T01:14:58.952Z,100.00
2022-08-02T01:18:03.198Z,100.00
2022-08-02T01:21:17.306Z,100.00
2022-08-02T01:24:11.204Z,100.00
2022-08-02T01:27:00.045Z,100.00
2022-08-02T01:29:34.850Z,100.00
2022-08-02T01:32:26.118Z,100.00
2022-08-02T01:35:50.492Z,100.00
2022-08-02T01:38:34.155Z,100.00
2022-08-02T01:41:12.684Z,100.00
2022-08-02T01:44:03.396Z,100.00
2022-08-02T01:46:33.402Z,100.00
2022-08-02T01:49:06.818Z,100.00
2022-08-02T01:52:04.678Z,100.00
2022-08-02T01:54:40.285Z,100.00
2022-08-02T01:57:12.468Z,100.00
2022-08-02T01:59:42.680Z,100.00
2022-08-02T02:02:32.747Z,100.00
2022-08-02T02:05:03.342Z,100.00
2022-08-02T02:07:35.572Z,100.00
2022-08-02T02:10:04.401Z,100.00
2022-08-02T02:12:41.903Z,100.00
2022-08-02T02:15:11.836Z,100.00
2022-08-02T02:17:52.044Z,100.00
2022-08-02T02:20:34.746Z,100.00
2022-08-02T02:23:03.141Z,100.00
2022-08-02T02:25:35.882Z,100.00
2022-08-02T02:28:10.017Z,100.00
2022-08-02T02:30:40.524Z,100.00
2022-08-02T02:33:11.987Z,100.00
2022-08-02T02:35:41.840Z,100.00
2022-08-02T02:38:13.969Z,100.00
2022-08-02T02:40:42.414Z,100.00
2022-08-02T02:43:12.526Z,100.00
2022-08-02T02:45:41.188Z,100.00
2022-08-02T02:48:09.941Z,100.00
2022-08-02T02:50:37.541Z,100.00
2022-08-02T02:53:07.265Z,100.00
2022-08-02T02:55:34.772Z,100.00
2022-08-02T02:58:04.855Z,100.00
2022-08-02T03:00:50.970Z,100.00
2022-08-02T03:03:21.483Z,100.00
2022-08-02T03:05:56.987Z,100.00
2022-08-02T03:08:24.159Z,100.00
2022-08-02T03:10:52.274Z,100.00
2022-08-02T03:13:23.231Z,100.00
2022-08-02T03:16:01.097Z,100.00
2022-08-02T03:18:36.381Z,100.00
2022-08-02T03:21:13.309Z,100.00
2022-08-02T03:23:43.691Z,100.00
2022-08-02T03:26:14.961Z,100.00
2022-08-02T03:28:44.019Z,100.00
2022-08-02T03:31:13.143Z,100.00
2022-08-02T03:33:40.704Z,100.00
2022-08-02T03:36:12.631Z,100.00
2022-08-02T03:38:44.161Z,100.00
2022-08-02T03:41:16.925Z,100.00
2022-08-02T03:43:46.935Z,100.00
2022-08-02T03:46:16.173Z,100.00
2022-08-02T03:48:45.008Z,100.00
2022-08-02T03:51:14.240Z,100.00
2022-08-02T03:53:48.094Z,100.00
2022-08-02T03:56:18.079Z,100.00
2022-08-02T03:58:49.014Z,100.00
2022-08-02T04:01:17.058Z,100.00
2022-08-02T04:04:00.421Z,100.00
2022-08-02T04:06:40.121Z,100.00
2022-08-02T04:09:10.161Z,100.00
2022-08-02T04:11:38.201Z,100.00
2022-08-02T04:14:11.389Z,100.00
2022-08-02T04:16:42.791Z,100.00
2022-08-02T04:19:17.757Z,100.00
2022-08-02T04:21:52.087Z,100.00
2022-08-02T04:24:32.477Z,100.00
2022-08-02T04:27:19.105Z,100.00
2022-08-02T04:29:50.063Z,100.00
2022-08-02T04:32:24.372Z,100.00
2022-08-02T04:35:18.586Z,100.00
2022-08-02T04:38:08.172Z,100.00
2022-08-02T04:40:28.197Z,100.00
2022-08-02T04:43:02.128Z,100.00
2022-08-02T04:45:31.845Z,100.00
2022-08-02T04:48:05.351Z,100.00
2022-08-02T04:50:35.291Z,100.00
2022-08-02T04:53:02.501Z,100.00
2022-08-02T04:55:30.524Z,100.00
2022-08-02T04:57:59.100Z,100.00
2022-08-02T05:00:35.533Z,100.00
2022-08-02T05:03:03.077Z,100.00
2022-08-02T05:05:31.356Z,100.00
2022-08-02T05:07:59.653Z,100.00
2022-08-02T05:10:30.079Z,100.00
2022-08-02T05:12:57.205Z,100.00
2022-08-02T05:15:24.316Z,100.00
2022-08-02T05:17:52.308Z,100.00
2022-08-02T05:20:20.232Z,100.00
2022-08-02T05:22:49.207Z,100.00
2022-08-02T05:25:16.310Z,100.00
2022-08-02T05:27:44.394Z,100.00
2022-08-02T05:30:12.782Z,100.00
2022-08-02T05:32:48.731Z,100.00
2022-08-02T05:35:20.733Z,100.00
2022-08-02T05:37:57.167Z,100.00
2022-08-02T05:40:31.292Z,100.00
2022-08-02T05:43:00.515Z,100.00
2022-08-02T05:45:28.765Z,100.00
2022-08-02T05:47:56.855Z,100.00
2022-08-02T05:50:28.938Z,100.00
2022-08-02T05:53:25.273Z,100.00
2022-08-02T05:56:06.658Z,100.00
2022-08-02T05:58:55.648Z,100.00
2022-08-02T06:01:34.322Z,100.00
2022-08-02T06:04:09.841Z,100.00
2022-08-02T06:06:44.479Z,100.00
2022-08-02T06:09:23.223Z,100.00
2022-08-02T06:12:10.936Z,100.00
2022-08-02T06:14:38.378Z,100.00
2022-08-02T06:17:06.771Z,100.00
2022-08-02T06:19:50.987Z,100.00
2022-08-02T06:22:42.409Z,100.00
2022-08-02T06:25:50.918Z,100.00
2022-08-02T06:28:20.412Z,100.00
2022-08-02T06:30:53.048Z,100.00
2022-08-02T06:33:21.288Z,99.69
2022-08-02T06:35:56.940Z,98.99
2022-08-02T06:38:27.897Z,97.51
2022-08-02T06:41:06.397Z,97.55
2022-08-02T06:44:13.753Z,96.07
2022-08-02T06:47:10.232Z,95.82
2022-08-02T06:49:51.377Z,93.91
2022-08-02T06:52:27.728Z,92.98
2022-08-02T06:55:00.383Z,91.45
2022-08-02T06:57:34.309Z,90.18
2022-08-02T07:00:07.274Z,89.83
2022-08-02T07:02:38.001Z,89.84
2022-08-02T07:05:05.793Z,89.29
2022-08-02T07:07:33.627Z,88.63
2022-08-02T07:10:06.981Z,88.74
2022-08-02T07:12:36.106Z,88.03
2022-08-02T07:15:12.827Z,88.17
2022-08-02T07:17:42.853Z,86.92
2022-08-02T07:20:10.389Z,84.97
2022-08-02T07:22:40.310Z,85.08
2022-08-02T07:25:08.341Z,85.02
2022-08-02T07:27:35.602Z,84.73
2022-08-02T07:30:05.513Z,84.76
2022-08-02T07:32:33.420Z,83.70
2022-08-02T07:35:03.407Z,83.53
2022-08-02T07:37:58.076Z,83.01
2022-08-02T07:40:25.628Z,81.40
2022-08-02T07:43:02.443Z,80.52
2022-08-02T07:45:55.747Z,78.89
2022-08-02T07:48:23.803Z,77.10
2022-08-02T07:50:54.650Z,75.22
2022-08-02T07:53:30.585Z,74.85
2022-08-02T07:56:11.175Z,74.38
2022-08-02T07:58:43.397Z,74.66
2022-08-02T08:01:11.651Z,74.65
2022-08-02T08:03:46.136Z,71.92
2022-08-02T08:06:15.324Z,73.32
2022-08-02T08:08:44.414Z,74.16
2022-08-02T08:11:12.547Z,73.26
2022-08-02T08:13:39.660Z,70.63
2022-08-02T08:16:06.814Z,70.77
2022-08-02T08:18:35.581Z,70.32
2022-08-02T08:21:08.731Z,70.13
2022-08-02T08:23:36.321Z,68.54
2022-08-02T08:26:04.834Z,68.88
2022-08-02T08:28:33.092Z,71.32
2022-08-02T08:31:00.329Z,70.85
2022-08-02T08:33:29.351Z,69.11
2022-08-02T08:36:04.889Z,68.70
2022-08-02T08:38:31.980Z,68.12
2022-08-02T08:40:59.240Z,68.84
2022-08-02T08:43:30.384Z,69.06
2022-08-02T08:45:58.520Z,69.47
2022-08-02T08:48:31.988Z,68.12
2022-08-02T08:51:12.159Z,68.25
2022-08-02T08:53:46.748Z,66.88
2022-08-02T08:56:16.630Z,66.16
2022-08-02T08:58:48.424Z,64.12
2022-08-02T09:01:17.736Z,62.82
2022-08-02T09:03:51.274Z,65.69
2022-08-02T09:06:19.388Z,66.35
2022-08-02T09:08:46.591Z,64.38
2022-08-02T09:11:24.561Z,65.63
2022-08-02T09:14:01.673Z,66.97
2022-08-02T09:16:31.636Z,66.42
2022-08-02T09:18:59.631Z,64.22
2022-08-02T09:21:42.060Z,64.24
2022-08-02T09:24:20.463Z,64.07
2022-08-02T09:26:54.592Z,62.26
2022-08-02T09:29:26.977Z,60.58
2022-08-02T09:32:03.880Z,62.05
2022-08-02T09:34:52.472Z,59.58
2022-08-02T09:37:50.116Z,59.40
2022-08-02T09:40:17.132Z,61.38
2022-08-02T09:43:04.195Z,60.91
2022-08-02T09:45:34.906Z,60.76
2022-08-02T09:48:09.430Z,60.88
2022-08-02T09:50:42.871Z,58.95
2022-08-02T09:53:28.136Z,57.75
2022-08-02T09:55:58.509Z,58.27
2022-08-02T09:58:52.228Z,59.14
2022-08-02T10:01:36.913Z,59.25
2022-08-02T10:04:15.718Z,58.42
2022-08-02T10:06:49.719Z,57.00
2022-08-02T10:09:17.354Z,56.85
2022-08-02T10:11:44.521Z,54.10
2022-08-02T10:14:12.368Z,53.50
2022-08-02T10:16:41.761Z,52.27
2022-08-02T10:19:13.858Z,52.50
2022-08-02T10:21:57.032Z,52.60
2022-08-02T10:24:28.106Z,52.14
2022-08-02T10:26:59.411Z,50.22
2022-08-02T10:29:53.416Z,48.21
2022-08-02T10:32:23.371Z,46.21
2022-08-02T10:35:20.002Z,47.02
2022-08-02T10:38:01.646Z,45.54
2022-08-02T10:40:49.265Z,46.97
2022-08-02T10:43:44.077Z,45.75
2022-08-02T10:46:24.824Z,47.74
2022-08-02T10:52:02.993Z,46.93
2022-08-02T10:54:40.089Z,44.69
2022-08-02T10:57:31.612Z,44.62
2022-08-02T11:00:10.124Z,43.16
2022-08-02T11:02:52.955Z,43.79
2022-08-02T11:05:42.563Z,43.99
2022-08-02T11:08:23.479Z,43.17
2022-08-02T11:10:50.578Z,41.85
2022-08-02T11:13:26.887Z,39.05
2022-08-02T11:16:10.779Z,38.57
2022-08-02T11:19:00.553Z,38.87
2022-08-02T11:21:33.118Z,41.28
2022-08-02T11:24:29.942Z,42.07
2022-08-02T11:27:08.647Z,41.39
2022-08-02T11:29:46.641Z,40.23
2022-08-02T11:32:31.003Z,40.60
2022-08-02T11:35:00.831Z,41.29
2022-08-02T11:37:38.795Z,43.10
2022-08-02T11:40:19.507Z,42.34
2022-08-02T11:42:51.234Z,43.25
2022-08-02T11:45:29.746Z,42.18
2022-08-02T11:47:57.587Z,42.30
2022-08-02T11:50:29.943Z,41.82
2022-08-02T11:53:26.721Z,37.29
2022-08-02T11:55:57.463Z,37.65
2022-08-02T11:58:31.630Z,37.83
2022-08-02T12:00:58.868Z,36.35
2022-08-02T12:03:50.603Z,34.79
2022-08-02T12:06:20.838Z,36.39
2022-08-02T12:08:54.625Z,35.43
2022-08-02T12:11:21.887Z,33.43
2022-08-02T12:13:57.093Z,33.70
2022-08-02T12:16:43.677Z,33.90
2022-08-02T12:19:20.884Z,32.78
2022-08-02T12:21:47.989Z,33.48
2022-08-02T12:24:37.709Z,32.67
2022-08-02T12:27:06.260Z,31.84
2022-08-02T12:29:58.511Z,32.11
2022-08-02T12:32:30.140Z,34.23
2022-08-02T12:35:15.420Z,35.28
2022-08-02T12:38:11.339Z,37.43
2022-08-02T12:40:39.072Z,34.77
2022-08-02T12:43:16.667Z,33.73
2022-08-02T12:45:56.807Z,35.20
2022-08-02T12:48:48.157Z,34.41
2022-08-02T12:51:56.312Z,34.24
2022-08-02T12:54:31.050Z,33.22
2022-08-02T12:56:59.252Z,32.55
2022-08-02T12:59:50.993Z,32.65
2022-08-02T13:02:18.536Z,31.31
2022-08-02T13:04:49.792Z,31.88
2022-08-02T13:07:19.799Z,30.60
2022-08-02T13:10:03.042Z,30.43
2022-08-02T13:12:33.516Z,29.38
2022-08-02T13:15:02.843Z,29.66
2022-08-02T13:17:30.118Z,29.12
2022-08-02T13:19:57.194Z,30.06
2022-08-02T13:22:24.517Z,29.77
2022-08-02T13:25:00.940Z,31.15
2022-08-02T13:27:28.772Z,30.71
2022-08-02T13:29:58.938Z,30.97
2022-08-02T13:32:29.194Z,30.48
2022-08-02T13:35:01.446Z,30.53
2022-08-02T13:37:28.522Z,31.08
2022-08-02T13:40:19.990Z,29.77
2022-08-02T13:42:44.631Z,30.74
2022-08-02T13:45:13.804Z,31.34
2022-08-02T13:47:57.178Z,30.06
2022-08-02T13:50:32.527Z,29.11
2022-08-02T13:52:59.626Z,27.55
2022-08-02T13:55:26.818Z,28.58
2022-08-02T13:57:54.472Z,27.53
2022-08-02T14:00:35.642Z,27.76
2022-08-02T14:03:07.793Z,27.72
2022-08-02T14:05:47.496Z,28.32
2022-08-02T14:08:23.118Z,28.91
2022-08-02T14:10:52.363Z,29.32
2022-08-02T14:13:24.635Z,28.75
2022-08-02T14:15:51.829Z,27.35
2022-08-02T14:18:18.964Z,28.88
2022-08-02T14:20:46.262Z,29.64
2022-08-02T14:23:15.465Z,30.34
2022-08-02T14:25:43.797Z,29.64
2022-08-02T14:28:11.038Z,29.33
2022-08-02T14:30:39.277Z,29.73
2022-08-02T14:33:06.483Z,29.18
2022-08-02T14:35:33.955Z,29.06
2022-08-02T14:38:02.095Z,28.71
2022-08-02T14:40:32.145Z,28.61
2022-08-02T14:43:01.385Z,29.14
2022-08-02T14:45:40.739Z,28.11
2022-08-02T14:48:11.769Z,28.50
2022-08-02T14:50:46.536Z,28.28
2022-08-02T14:53:21.821Z,28.64
2022-08-02T14:55:51.339Z,29.74
2022-08-02T14:58:18.518Z,29.70
2022-08-02T15:00:54.869Z,30.03
2022-08-02T15:03:21.978Z,30.13
2022-08-02T15:05:50.473Z,29.14
2022-08-02T15:08:19.464Z,28.56
2022-08-02T15:10:56.757Z,28.47
2022-08-02T15:13:25.827Z,28.63
2022-08-02T15:15:54.001Z,28.49
2022-08-02T15:18:21.439Z,28.89
2022-08-02T15:21:52.649Z,28.73
2022-08-02T15:24:02.663Z,28.05
2022-08-02T15:26:39.701Z,28.01
2022-08-02T15:29:14.912Z,28.48
2022-08-02T15:31:43.620Z,28.67
2022-08-02T15:34:10.965Z,28.36
2022-08-02T15:36:52.476Z,28.07
2022-08-02T15:39:19.736Z,28.74
2022-08-02T15:41:46.807Z,28.85
2022-08-02T15:44:14.888Z,29.10
2022-08-02T15:46:43.976Z,28.64
2022-08-02T15:49:11.283Z,29.74
2022-08-02T15:51:38.363Z,29.59
2022-08-02T15:54:05.463Z,29.08
2022-08-02T15:56:33.481Z,29.84
2022-08-02T15:59:00.534Z,29.30
2022-08-02T16:01:36.960Z,29.27
2022-08-02T16:04:07.350Z,29.13
2022-08-02T16:06:36.993Z,29.28
2022-08-02T16:09:08.449Z,29.08
2022-08-02T16:11:35.630Z,29.32
2022-08-02T16:14:08.876Z,28.25
2022-08-02T16:16:36.692Z,29.41
2022-08-02T16:19:45.937Z,29.41
2022-08-02T16:21:58.378Z,30.54
2022-08-02T16:24:26.509Z,30.55
2022-08-02T16:26:53.583Z,31.00
2022-08-02T16:29:21.614Z,31.07
2022-08-02T16:31:54.456Z,30.87
2022-08-02T16:34:23.492Z,32.20
2022-08-02T16:36:50.589Z,33.10
2022-08-02T16:39:22.711Z,32.67
2022-08-02T16:41:53.151Z,33.10
2022-08-02T16:44:29.272Z,32.65
2022-08-02T16:47:13.994Z,33.42
2022-08-02T16:50:06.538Z,33.99
2022-08-02T16:52:34.362Z,34.69
2022-08-02T16:55:02.214Z,35.13
2022-08-02T16:57:43.166Z,35.42
2022-08-02T17:00:15.585Z,35.81
2022-08-02T17:02:43.399Z,34.97
2022-08-02T17:05:14.634Z,34.81
2022-08-02T17:08:07.723Z,36.32
2022-08-02T17:10:34.908Z,36.40
2022-08-02T17:13:11.380Z,36.88
2022-08-02T17:16:01.329Z,36.14
2022-08-02T17:18:33.140Z,36.83
2022-08-02T17:21:04.290Z,35.95
2022-08-02T17:24:04.025Z,36.73
2022-08-02T17:26:19.888Z,36.64
2022-08-02T17:29:17.755Z,36.53
2022-08-02T17:31:37.291Z,36.75
2022-08-02T17:34:11.996Z,38.06
2022-08-02T17:36:41.244Z,39.53
2022-08-02T17:39:08.383Z,40.01
2022-08-02T17:41:48.951Z,41.73
2022-08-02T17:44:37.566Z,42.73
2022-08-02T17:47:06.477Z,44.18
2022-08-02T17:49:36.116Z,44.68
2022-08-02T17:52:47.795Z,45.37
2022-08-02T17:54:52.736Z,46.42
2022-08-02T17:57:55.696Z,46.50
2022-08-02T18:00:15.277Z,47.91
2022-08-02T18:02:43.857Z,51.52
2022-08-02T18:05:20.397Z,51.75
2022-08-02T18:10:37.827Z,52.07
2022-08-02T18:13:05.497Z,52.54
2022-08-02T18:15:36.696Z,56.29
2022-08-02T18:18:03.881Z,55.86
2022-08-02T18:20:31.394Z,56.39
2022-08-02T18:22:59.061Z,55.64
2022-08-02T18:25:37.729Z,58.00
2022-08-02T18:28:15.437Z,58.23
2022-08-02T18:30:44.635Z,60.41
2022-08-02T18:33:57.984Z,62.41
2022-08-02T18:35:59.731Z,63.83
2022-08-02T18:38:31.894Z,62.35
2022-08-02T18:41:03.070Z,60.06
2022-08-02T18:43:34.487Z,61.22
2022-08-02T18:46:15.317Z,62.19
2022-08-02T18:48:48.056Z,64.19
2022-08-02T18:51:40.682Z,65.81
2022-08-02T18:54:08.534Z,65.71
2022-08-02T19:00:20.558Z,63.12
2022-08-02T19:02:54.798Z,64.20
2022-08-02T19:05:24.290Z,66.67
2022-08-02T19:08:12.338Z,65.85
2022-08-02T19:10:49.073Z,67.96
2022-08-02T19:13:52.287Z,68.14
2022-08-02T19:16:52.889Z,69.68
2022-08-02T19:19:28.847Z,69.93
2022-08-02T19:22:18.051Z,71.73
2022-08-02T19:25:00.196Z,72.54
2022-08-02T19:27:32.683Z,71.72
2022-08-02T19:30:07.612Z,71.17
2022-08-02T19:32:40.240Z,72.23
2022-08-02T19:35:36.968Z,71.84
2022-08-02T19:38:30.560Z,71.10
2022-08-02T19:41:01.701Z,72.95
2022-08-02T19:44:25.767Z,70.63
2022-08-02T19:46:33.516Z,71.06
2022-08-02T19:49:16.352Z,74.29
2022-08-02T19:51:55.029Z,75.67
2022-08-02T19:54:44.801Z,75.49
2022-08-02T19:57:19.402Z,75.79
2022-08-02T19:59:53.869Z,75.91
2022-08-02T20:02:29.324Z,77.71
2022-08-02T20:05:16.014Z,78.18
2022-08-02T20:07:54.277Z,77.78
2022-08-02T20:10:25.106Z,78.08
2022-08-02T20:12:56.837Z,77.56
2022-08-02T20:15:51.899Z,78.39
2022-08-02T20:18:11.155Z,77.93
2022-08-02T20:20:51.675Z,78.70
2022-08-02T20:23:33.675Z,79.72
2022-08-02T20:26:09.018Z,80.74
2022-08-02T20:28:36.348Z,81.64
2022-08-02T20:31:19.557Z,81.73
2022-08-02T20:33:55.514Z,82.14
2022-08-02T20:36:23.751Z,82.32
2022-08-02T20:39:06.279Z,81.57
2022-08-02T20:42:07.927Z,81.80
2022-08-02T20:44:57.791Z,81.67
2022-08-02T20:47:39.611Z,82.21
2022-08-02T20:50:31.667Z,82.65
2022-08-02T20:53:03.180Z,83.17
2022-08-02T20:55:36.037Z,83.18
2022-08-02T20:58:14.967Z,83.70
2022-08-02T21:00:52.717Z,84.15
2022-08-02T21:03:20.549Z,84.38
2022-08-02T21:06:17.049Z,85.49
2022-08-02T21:08:53.220Z,84.67
2022-08-02T21:11:33.491Z,83.98
2022-08-02T21:14:07.390Z,85.27
2022-08-02T21:16:37.383Z,86.46
2022-08-02T21:19:07.955Z,85.75
2022-08-02T21:21:37.863Z,84.68
2022-08-02T21:24:05.529Z,85.90
2022-08-02T21:26:37.658Z,86.70
2022-08-02T21:29:05.039Z,86.46
2022-08-02T21:31:36.121Z,86.57
2022-08-02T21:34:21.676Z,86.21
2022-08-02T21:36:53.536Z,85.77
2022-08-02T21:39:22.055Z,85.53
2022-08-02T21:41:50.331Z,85.33
2022-08-02T21:44:22.777Z,85.89
2022-08-02T21:46:54.924Z,85.98
2022-08-02T21:49:41.044Z,87.42
2022-08-02T21:52:12.810Z,88.50
2022-08-02T21:54:40.996Z,89.16
2022-08-02T21:57:16.828Z,90.26
2022-08-02T21:59:52.876Z,91.10
2022-08-02T22:02:47.837Z,91.32
2022-08-02T22:05:14.743Z,92.33
2022-08-02T22:07:45.835Z,93.90
2022-08-02T22:10:19.226Z,94.74
2022-08-02T22:12:47.447Z,94.63
2022-08-02T22:15:35.840Z,94.58
2022-08-02T22:18:08.483Z,95.58
2022-08-02T22:20:44.845Z,94.21
2022-08-02T22:23:51.178Z,93.12
2022-08-02T22:26:19.439Z,93.85
2022-08-02T22:28:51.103Z,94.01
2022-08-02T22:34:26.495Z,94.80
2022-08-02T22:37:00.822Z,94.80
2022-08-02T22:39:29.023Z,94.73
2022-08-02T22:42:05.638Z,94.27
2022-08-02T22:44:36.094Z,94.40
2022-08-02T22:47:14.807Z,94.80
2022-08-02T22:49:52.877Z,95.30
2022-08-02T22:52:23.909Z,95.32
2022-08-02T22:54:51.234Z,95.43
2022-08-02T22:57:30.538Z,95.99
2022-08-02T22:58:59.610Z,52.65
2022-08-02T22:59:04.978Z,93.75
2022-08-02T23:00:10.172Z,96.38
2022-08-02T23:02:49.412Z,96.13
2022-08-02T23:05:17.710Z,95.91
2022-08-02T23:07:49.950Z,95.74
2022-08-02T23:10:17.058Z,95.67
2022-08-02T23:12:56.477Z,96.30
2022-08-02T23:15:27.637Z,96.87
2022-08-02T23:18:14.018Z,98.40
2022-08-02T23:20:54.430Z,98.28
2022-08-02T23:23:34.884Z,98.27
2022-08-02T23:26:04.167Z,97.31
2022-08-02T23:28:32.560Z,96.13
2022-08-02T23:31:49.441Z,95.14
2022-08-02T23:34:18.556Z,94.91
2022-08-02T23:36:47.734Z,95.66
2022-08-02T23:39:16.681Z,96.50
2022-08-02T23:42:03.299Z,96.41
2022-08-02T23:44:31.325Z,96.48
2022-08-02T23:47:00.670Z,96.75
2022-08-02T23:49:30.974Z,96.70
2022-08-02T23:52:01.720Z,96.29
2022-08-02T23:54:30.204Z,96.92
2022-08-02T23:56:57.463Z,97.33
2022-08-02T23:59:25.580Z,97.20
